createdAt,value
2014-08-07T00:00:04.503Z,70.52
2014-08-07T00:01:09.490Z,69.76
2014-08-07T00:02:14.164Z,70.13
2014-08-07T00:03:18.854Z,69.91
2014-08-07T00:04:23.543Z,69.89
2014-08-07T00:05:28.514Z,70.47
2014-08-07T00:06:33.203Z,71.37
2014-08-07T00:07:37.877Z,71.36
2014-08-07T00:08:42.864Z,71.18
2014-08-07T00:09:47.553Z,70.83
2014-08-07T00:10:52.227Z,71.17
2014-08-07T00:11:56.917Z,71.35
2014-08-07T00:13:01.606Z,71.44
2014-08-07T00:14:06.280Z,70.98
2014-08-07T00:15:10.969Z,71.12
2014-08-07T00:16:15.659Z,70.89
2014-08-07T00:17:20.645Z,70.45
2014-08-07T00:18:25.616Z,70.6
2014-08-07T00:19:30.306Z,71.52
2014-08-07T00:20:34.995Z,70.92
2014-08-07T00:21:39.685Z,71.09
2014-08-07T00:22:44.358Z,72.15
2014-08-07T00:23:49.345Z,71.74
2014-08-07T00:24:54.348Z,71.29
2014-08-07T00:25:59.333Z,70.93
2014-08-07T00:27:04.320Z,71.68
2014-08-07T00:28:09.010Z,72.24
2014-08-07T00:29:13.683Z,71.9
2014-08-07T00:30:18.373Z,72.36
2014-08-07T00:31:23.047Z,73.51
2014-08-07T00:32:27.739Z,74.03
2014-08-07T00:33:32.428Z,73.86
2014-08-07T00:34:37.102Z,73.45
2014-08-07T00:35:41.792Z,73.42
2014-08-07T00:36:46.466Z,72.74
2014-08-07T00:37:51.155Z,72.56
2014-08-07T00:38:55.141Z,72.99
2014-08-07T00:39:59.831Z,73.89
2014-08-07T00:41:04.817Z,72.65
2014-08-07T00:42:09.491Z,72.98
2014-08-07T00:43:14.181Z,72.49
2014-08-07T00:44:18.855Z,72.14
2014-08-07T00:45:23.544Z,72.7
2014-08-07T00:46:28.218Z,72.96
2014-08-07T00:47:32.907Z,73.23
2014-08-07T00:48:38.191Z,73.05
2014-08-07T00:49:42.880Z,73.01
2014-08-07T00:50:47.852Z,72.85
2014-08-07T00:51:52.540Z,72.91
2014-08-07T00:52:57.215Z,72.93
2014-08-07T00:54:01.905Z,72.83
2014-08-07T00:55:06.579Z,73.18
2014-08-07T00:56:11.268Z,72.82
2014-08-07T00:57:15.958Z,73.09
2014-08-07T00:58:20.647Z,72.56
2014-08-07T00:59:25.337Z,72.01
2014-08-07T01:00:30.026Z,71.72
2014-08-07T01:01:35.013Z,71.78
2014-08-07T01:02:39.999Z,71.79
2014-08-07T01:03:44.985Z,72.01
2014-08-07T01:04:49.972Z,71.88
2014-08-07T01:05:54.662Z,71.57
2014-08-07T01:06:59.335Z,71.62
2014-08-07T01:08:04.026Z,71.74
2014-08-07T01:09:09.012Z,71.41
2014-08-07T01:10:13.997Z,71.19
2014-08-07T01:11:18.985Z,70.97
2014-08-07T01:12:23.970Z,70.79
2014-08-07T01:13:28.645Z,70.71
2014-08-07T01:14:33.333Z,70.87
2014-08-07T01:15:38.320Z,71.59
2014-08-07T01:16:43.010Z,71.5
2014-08-07T01:17:47.684Z,71.74
2014-08-07T01:18:52.374Z,71.74
2014-08-07T01:19:57.063Z,71.77
2014-08-07T01:21:02.034Z,71.4
2014-08-07T01:22:07.020Z,71.83
2014-08-07T01:23:11.710Z,71.97
2014-08-07T01:24:16.384Z,71.64
2014-08-07T01:25:21.073Z,71.4
2014-08-07T01:26:25.747Z,71.6
2014-08-07T01:27:30.437Z,71.56
2014-08-07T01:28:34.439Z,71.36
2014-08-07T01:29:39.112Z,72.03
2014-08-07T01:30:43.802Z,72.24
2014-08-07T01:31:48.491Z,71.83
2014-08-07T01:32:53.462Z,72.17
2014-08-07T01:33:58.152Z,72.48
2014-08-07T01:35:03.436Z,71.96
2014-08-07T01:36:08.110Z,71.55
2014-08-07T01:37:12.799Z,71.17
2014-08-07T01:38:17.488Z,71.51
2014-08-07T01:39:22.163Z,71.93
2014-08-07T01:40:26.851Z,71.73
2014-08-07T01:41:30.839Z,71.57
2014-08-07T01:42:35.528Z,71.76
2014-08-07T01:43:40.218Z,72.13
2014-08-07T01:44:45.204Z,72.42
2014-08-07T01:45:50.190Z,71.9
2014-08-07T01:46:54.864Z,71.74
2014-08-07T01:47:59.554Z,71.71
2014-08-07T01:49:04.540Z,71.99
2014-08-07T01:50:09.526Z,72.38
2014-08-07T01:51:14.513Z,72.43
2014-08-07T01:52:19.486Z,72.25
2014-08-07T01:53:24.175Z,71.8
2014-08-07T01:54:28.865Z,71.69
2014-08-07T01:55:33.835Z,71.54
2014-08-07T01:56:38.525Z,71.53
2014-08-07T01:57:43.214Z,71.19
2014-08-07T01:58:47.904Z,71.08
2014-08-07T01:59:52.875Z,71.22
2014-08-07T02:00:57.564Z,71.14
2014-08-07T02:02:02.536Z,71.33
2014-08-07T02:03:07.522Z,71.81
2014-08-07T02:04:12.211Z,72.4
2014-08-07T02:05:16.886Z,72.34
2014-08-07T02:06:21.575Z,71.72
2014-08-07T02:07:26.546Z,72.02
2014-08-07T02:08:31.531Z,71.47
2014-08-07T02:09:36.222Z,71.63
2014-08-07T02:10:40.896Z,71.97
2014-08-07T02:11:45.585Z,72.23
2014-08-07T02:12:50.275Z,71.88
2014-08-07T02:13:55.245Z,71.8
2014-08-07T02:14:59.935Z,71.76
2014-08-07T02:16:04.609Z,72.08
2014-08-07T02:17:09.298Z,72.31
2014-08-07T02:18:14.285Z,72.14
2014-08-07T02:19:18.958Z,71.9
2014-08-07T02:20:23.945Z,71.84
2014-08-07T02:21:28.931Z,71.64
2014-08-07T02:22:33.621Z,71.85
2014-08-07T02:23:38.295Z,72.2
2014-08-07T02:24:43.281Z,72.49
2014-08-07T02:25:48.267Z,72.68
2014-08-07T02:26:52.941Z,72.91
2014-08-07T02:27:57.928Z,72.36
2014-08-07T02:29:02.914Z,72.01
2014-08-07T02:30:07.620Z,71.78
2014-08-07T02:31:12.293Z,71.31
2014-08-07T02:32:17.280Z,72.19
2014-08-07T02:33:21.969Z,72.42
2014-08-07T02:34:26.659Z,72.25
2014-08-07T02:35:31.646Z,72.46
2014-08-07T02:36:36.319Z,72.26
2014-08-07T02:37:41.009Z,72.01
2014-08-07T02:38:45.683Z,72.22
2014-08-07T02:39:50.669Z,72.02
2014-08-07T02:40:55.359Z,71.74
2014-08-07T02:42:00.033Z,71.89
2014-08-07T02:43:05.019Z,71.9
2014-08-07T02:44:09.709Z,72.08
2014-08-07T02:45:14.382Z,72.63
2014-08-07T02:46:19.072Z,73.68
2014-08-07T02:47:24.043Z,73.34
2014-08-07T02:48:28.748Z,72.72
2014-08-07T02:49:33.438Z,72.01
2014-08-07T02:50:38.111Z,71.63
2014-08-07T02:51:42.802Z,71.29
2014-08-07T02:52:47.476Z,71.22
2014-08-07T02:53:52.165Z,71.04
2014-08-07T02:54:57.151Z,71.56
2014-08-07T02:56:02.122Z,71.84
2014-08-07T02:57:06.812Z,71.53
2014-08-07T02:58:11.501Z,71.42
2014-08-07T02:59:16.175Z,71.86
2014-08-07T03:00:20.865Z,72.29
2014-08-07T03:01:25.835Z,71.89
2014-08-07T03:02:30.822Z,71.47
2014-08-07T03:03:35.808Z,71.54
2014-08-07T03:04:40.498Z,71.86
2014-08-07T03:05:45.470Z,72.36
2014-08-07T03:06:50.457Z,71.73
2014-08-07T03:07:55.146Z,71.46
2014-08-07T03:09:00.134Z,71.83
2014-08-07T03:10:05.119Z,71.71
2014-08-07T03:11:10.105Z,71.52
2014-08-07T03:12:14.779Z,71.92
2014-08-07T03:13:19.470Z,72.26
2014-08-07T03:14:24.455Z,72.13
2014-08-07T03:15:29.145Z,72.14
2014-08-07T03:16:33.835Z,72.78
2014-08-07T03:17:38.821Z,71.9
2014-08-07T03:18:43.791Z,71.5
2014-08-07T03:19:48.778Z,71.6
2014-08-07T03:20:53.467Z,72.46
2014-08-07T03:21:58.438Z,72.05
2014-08-07T03:23:03.425Z,72.2
2014-08-07T03:24:08.115Z,71.86
2014-08-07T03:25:12.803Z,71.98
2014-08-07T03:26:17.493Z,72.55
2014-08-07T03:27:22.761Z,73.23
2014-08-07T03:28:27.451Z,73.9
2014-08-07T03:29:32.437Z,74.47
2014-08-07T03:30:37.111Z,74.59
2014-08-07T03:31:42.097Z,74.23
2014-08-07T03:32:46.787Z,73.93
2014-08-07T03:33:51.461Z,72.85
2014-08-07T03:34:56.744Z,72.7
2014-08-07T03:36:01.731Z,71.92
2014-08-07T03:37:06.702Z,71.87
2014-08-07T03:38:11.689Z,72.12
2014-08-07T03:39:16.378Z,72.42
2014-08-07T03:40:21.051Z,72.23
2014-08-07T03:41:25.741Z,72.68
2014-08-07T03:42:30.727Z,71.9
2014-08-07T03:43:35.402Z,71.82
2014-08-07T03:44:40.387Z,71.92
2014-08-07T03:45:45.077Z,71.91
2014-08-07T03:46:49.751Z,71.6
2014-08-07T03:47:54.738Z,71.45
2014-08-07T03:48:59.427Z,71.26
2014-08-07T03:50:04.117Z,71.1
2014-08-07T03:51:08.791Z,72.01
2014-08-07T03:52:13.481Z,71.65
2014-08-07T03:53:18.170Z,71.41
2014-08-07T03:54:22.859Z,71.33
2014-08-07T03:55:27.830Z,71.2
2014-08-07T03:56:32.519Z,71.09
2014-08-07T03:57:37.210Z,70.76
2014-08-07T03:58:41.914Z,70.48
2014-08-07T03:59:46.605Z,70.44
2014-08-07T04:00:51.590Z,70.58
2014-08-07T04:01:56.561Z,70.73
2014-08-07T04:03:01.250Z,71.28
2014-08-07T04:04:05.924Z,71.69
2014-08-07T04:05:10.615Z,71.76
2014-08-07T04:06:15.303Z,71.73
2014-08-07T04:07:20.275Z,72.1
2014-08-07T04:08:24.964Z,72
2014-08-07T04:09:29.935Z,70.84
2014-08-07T04:10:35.218Z,71.22
2014-08-07T04:11:40.191Z,71.43
2014-08-07T04:12:45.474Z,71.82
2014-08-07T04:13:50.460Z,70.87
2014-08-07T04:14:55.150Z,71.01
2014-08-07T04:15:59.137Z,71.39
2014-08-07T04:17:04.123Z,70.23
2014-08-07T04:18:08.812Z,70.82
2014-08-07T04:19:13.502Z,71.81
2014-08-07T04:20:18.473Z,71.76
2014-08-07T04:21:23.178Z,71.39
2014-08-07T04:22:27.852Z,72.47
2014-08-07T04:23:32.838Z,72.81
2014-08-07T04:24:37.824Z,72.88
2014-08-07T04:25:42.795Z,72.93
2014-08-07T04:26:47.782Z,72.57
2014-08-07T04:27:52.768Z,72.23
2014-08-07T04:28:57.457Z,72.08
2014-08-07T04:30:02.444Z,71.77
2014-08-07T04:31:07.118Z,72.21
2014-08-07T04:32:12.402Z,71.7
2014-08-07T04:33:17.091Z,71.66
2014-08-07T04:34:22.078Z,72.12
2014-08-07T04:35:26.751Z,73.21
2014-08-07T04:36:31.441Z,73.8
2014-08-07T04:37:36.130Z,73.39
2014-08-07T04:38:40.804Z,72.12
2014-08-07T04:39:45.494Z,71.44
2014-08-07T04:40:50.184Z,71.33
2014-08-07T04:41:54.857Z,71.61
2014-08-07T04:42:59.589Z,72.09
2014-08-07T04:44:04.623Z,72.58
2014-08-07T04:45:09.350Z,72.43
2014-08-07T04:46:14.385Z,72.02
2014-08-07T04:47:19.122Z,71.92
2014-08-07T04:48:23.814Z,72.08
2014-08-07T04:49:28.818Z,72.18
2014-08-07T04:50:33.823Z,72.02
2014-08-07T04:51:38.811Z,70.99
2014-08-07T04:52:43.513Z,71.49
2014-08-07T04:53:48.195Z,71.66
2014-08-07T04:54:52.890Z,72.66
2014-08-07T04:55:57.868Z,71.92
2014-08-07T04:57:02.860Z,72.13
2014-08-07T04:58:07.850Z,72.24
2014-08-07T04:59:12.528Z,72.69
2014-08-07T05:00:17.235Z,71.65
2014-08-07T05:01:21.912Z,72.13
2014-08-07T05:02:26.900Z,72.61
2014-08-07T05:03:31.887Z,73.05
2014-08-07T05:04:36.577Z,73.64
2014-08-07T05:05:41.252Z,73.6
2014-08-07T05:06:46.239Z,73.61
2014-08-07T05:07:50.930Z,73.33
2014-08-07T05:08:55.603Z,73.45
2014-08-07T05:10:00.293Z,73.9
2014-08-07T05:11:04.983Z,73.24
2014-08-07T05:12:09.953Z,73.47
2014-08-07T05:13:14.643Z,73.28
2014-08-07T05:14:19.332Z,73.58
2014-08-07T05:15:24.006Z,73.51
2014-08-07T05:16:28.697Z,72.51
2014-08-07T05:17:33.386Z,72.29
2014-08-07T05:18:38.076Z,71.92
2014-08-07T05:19:42.765Z,72.57
2014-08-07T05:20:47.735Z,72.83
2014-08-07T05:21:52.424Z,72.7
2014-08-07T05:22:57.411Z,72.32
2014-08-07T05:24:02.100Z,72.71
2014-08-07T05:25:06.774Z,72.88
2014-08-07T05:26:11.761Z,72.87
2014-08-07T05:27:16.731Z,72.89
2014-08-07T05:28:21.422Z,72.69
2014-08-07T05:29:26.395Z,72.96
2014-08-07T05:30:31.083Z,72.25
2014-08-07T05:31:36.069Z,72.42
2014-08-07T05:32:40.743Z,73.04
2014-08-07T05:33:45.434Z,72.63
2014-08-07T05:34:50.405Z,72.28
2014-08-07T05:35:55.110Z,72.12
2014-08-07T05:36:59.799Z,71.84
2014-08-07T05:38:04.770Z,72.37
2014-08-07T05:39:10.053Z,71.71
2014-08-07T05:40:15.040Z,72.25
2014-08-07T05:41:19.713Z,73.09
2014-08-07T05:42:24.403Z,73.47
2014-08-07T05:43:29.374Z,72.36
2014-08-07T05:44:34.063Z,72.61
2014-08-07T05:45:39.035Z,72.59
2014-08-07T05:46:44.021Z,72.59
2014-08-07T05:47:49.008Z,72.01
2014-08-07T05:48:53.977Z,71.85
2014-08-07T05:49:58.964Z,72.02
2014-08-07T05:51:03.654Z,71.83
2014-08-07T05:52:08.328Z,70.96
2014-08-07T05:53:13.017Z,71.82
2014-08-07T05:54:17.988Z,72.78
2014-08-07T05:55:22.677Z,72.54
2014-08-07T05:56:27.367Z,72.91
2014-08-07T05:57:32.650Z,71.99
2014-08-07T05:58:37.325Z,72.14
2014-08-07T05:59:42.310Z,72.69
2014-08-07T06:00:47.016Z,72.22
2014-08-07T06:01:52.299Z,72.97
2014-08-07T06:02:57.286Z,72.49
2014-08-07T06:04:01.975Z,72.79
2014-08-07T06:05:06.649Z,72.04
2014-08-07T06:06:11.339Z,71.79
2014-08-07T06:07:16.325Z,72.39
2014-08-07T06:08:21.000Z,72.28
2014-08-07T06:09:25.985Z,72.42
2014-08-07T06:10:30.660Z,72.04
2014-08-07T06:11:35.349Z,72.74
2014-08-07T06:12:40.039Z,72.8
2014-08-07T06:13:45.010Z,72.07
2014-08-07T06:14:49.699Z,71.28
2014-08-07T06:15:54.372Z,71.38
2014-08-07T06:16:59.062Z,71.65
2014-08-07T06:18:03.752Z,72.59
2014-08-07T06:19:08.739Z,72.39
2014-08-07T06:20:13.428Z,72.3
2014-08-07T06:21:18.101Z,72.22
2014-08-07T06:22:22.792Z,72.36
2014-08-07T06:23:27.466Z,71.53
2014-08-07T06:24:32.453Z,71.08
2014-08-07T06:25:37.127Z,71.19
2014-08-07T06:26:41.816Z,71.42
2014-08-07T06:27:46.787Z,72.46
2014-08-07T06:28:51.475Z,72.56
2014-08-07T06:29:56.150Z,72.49
2014-08-07T06:31:01.137Z,72.24
2014-08-07T06:32:06.123Z,71.93
2014-08-07T06:33:11.109Z,72.3
2014-08-07T06:34:15.783Z,72.29
2014-08-07T06:35:20.770Z,72.25
2014-08-07T06:36:25.459Z,72.66
2014-08-07T06:37:30.134Z,72.57
2014-08-07T06:38:34.823Z,72.53
2014-08-07T06:39:39.794Z,72.27
2014-08-07T06:40:44.781Z,70.96
2014-08-07T06:41:49.470Z,70.82
2014-08-07T06:42:54.441Z,70.56
2014-08-07T06:43:59.130Z,70.59
2014-08-07T06:45:04.100Z,70.32
2014-08-07T06:46:09.087Z,69.67
2014-08-07T06:47:13.777Z,69.6
2014-08-07T06:48:18.748Z,70.14
2014-08-07T06:49:23.437Z,69.76
2014-08-07T06:50:28.129Z,70.35
2014-08-07T06:51:33.114Z,69.69
2014-08-07T06:52:37.788Z,69.7
2014-08-07T06:53:42.477Z,70.56
2014-08-07T06:54:47.152Z,69.44
2014-08-07T06:55:52.138Z,69.42
2014-08-07T06:56:57.124Z,69.1
2014-08-07T06:58:02.095Z,69.15
2014-08-07T06:59:06.784Z,70.32
2014-08-07T07:00:11.755Z,70.28
2014-08-07T07:01:16.740Z,71.19
2014-08-07T07:02:20.743Z,70.29
2014-08-07T07:03:25.417Z,70.22
2014-08-07T07:04:30.403Z,69.78
2014-08-07T07:05:35.389Z,69.65
2014-08-07T07:06:40.080Z,70.44
2014-08-07T07:07:44.753Z,70.36
2014-08-07T07:08:49.442Z,70.54
2014-08-07T07:09:54.132Z,69.77
2014-08-07T07:10:58.806Z,70.17
2014-08-07T07:12:03.496Z,70.26
2014-08-07T07:13:08.172Z,70.31
2014-08-07T07:14:12.861Z,70.6
2014-08-07T07:15:17.534Z,70.29
2014-08-07T07:16:22.224Z,69.62
2014-08-07T07:17:27.210Z,68.89
2014-08-07T07:18:31.884Z,68.37
2014-08-07T07:19:36.573Z,67.61
2014-08-07T07:20:41.560Z,67.64
2014-08-07T07:21:46.546Z,69.02
2014-08-07T07:22:51.517Z,68.95
2014-08-07T07:23:56.205Z,68.2
2014-08-07T07:25:00.880Z,67.33
2014-08-07T07:26:05.570Z,67.15
2014-08-07T07:27:10.244Z,67.3
2014-08-07T07:28:14.933Z,67.83
2014-08-07T07:29:19.919Z,67.4
2014-08-07T07:30:24.594Z,68.1
2014-08-07T07:31:29.581Z,68.38
2014-08-07T07:32:34.271Z,67.94
2014-08-07T07:33:38.945Z,68.31
2014-08-07T07:34:43.930Z,69.07
2014-08-07T07:35:48.917Z,69.76
2014-08-07T07:36:53.904Z,69.09
2014-08-07T07:37:58.594Z,69.34
2014-08-07T07:39:03.267Z,68.85
2014-08-07T07:40:07.956Z,69.06
2014-08-07T07:41:12.943Z,68.96
2014-08-07T07:42:17.632Z,68.34
2014-08-07T07:43:22.321Z,68.09
2014-08-07T07:44:27.309Z,68.24
2014-08-07T07:45:31.983Z,68.5
2014-08-07T07:46:36.672Z,67.02
2014-08-07T07:47:41.659Z,67.88
2014-08-07T07:48:46.629Z,68.22
2014-08-07T07:49:51.616Z,68.08
2014-08-07T07:50:56.290Z,67.46
2014-08-07T07:52:00.307Z,67.9
2014-08-07T07:53:04.981Z,66.77
2014-08-07T07:54:09.967Z,67.6
2014-08-07T07:55:13.969Z,67.62
2014-08-07T07:56:18.956Z,66.41
2014-08-07T07:57:23.630Z,65.72
2014-08-07T07:58:28.319Z,65.6
2014-08-07T07:59:32.993Z,64.86
2014-08-07T08:00:37.683Z,63.36
2014-08-07T08:01:42.356Z,62.88
2014-08-07T08:02:47.343Z,63.22
2014-08-07T08:03:52.033Z,62.8
2014-08-07T08:04:56.706Z,63.26
2014-08-07T08:06:01.397Z,62.96
2014-08-07T08:07:06.382Z,62.49
2014-08-07T08:08:11.368Z,63.12
2014-08-07T08:09:16.655Z,62.37
2014-08-07T08:10:21.344Z,63.39
2014-08-07T08:11:26.033Z,62.99
2014-08-07T08:12:30.722Z,62.46
2014-08-07T08:13:35.396Z,62.41
2014-08-07T08:14:40.383Z,63.55
2014-08-07T08:15:45.072Z,64
2014-08-07T08:16:49.762Z,64.07
2014-08-07T08:17:54.451Z,63.56
2014-08-07T08:18:59.141Z,64.05
2014-08-07T08:20:03.143Z,64.37
2014-08-07T08:21:07.833Z,63.41
2014-08-07T08:22:12.506Z,62.87
2014-08-07T08:23:17.196Z,63.03
2014-08-07T08:24:22.183Z,62.22
2014-08-07T08:25:26.857Z,61.72
2014-08-07T08:26:31.546Z,61.3
2014-08-07T08:27:36.532Z,60.1
2014-08-07T08:28:41.206Z,60.5
2014-08-07T08:29:45.896Z,60.62
2014-08-07T08:30:50.570Z,60.25
2014-08-07T08:31:55.259Z,60.65
2014-08-07T08:33:00.246Z,59.35
2014-08-07T08:34:04.936Z,58.99
2014-08-07T08:35:09.922Z,59.67
2014-08-07T08:36:14.596Z,58.6
2014-08-07T08:37:19.286Z,57.67
2014-08-07T08:38:23.975Z,58.54
2014-08-07T08:39:28.664Z,58.04
2014-08-07T08:40:33.651Z,57.44
2014-08-07T08:41:38.324Z,57.32
2014-08-07T08:42:43.015Z,56.98
2014-08-07T08:43:47.703Z,56.63
2014-08-07T08:44:52.394Z,57.37
2014-08-07T08:45:57.083Z,58.65
2014-08-07T08:47:02.069Z,57.55
2014-08-07T08:48:06.759Z,57.4
2014-08-07T08:49:11.448Z,58.19
2014-08-07T08:50:16.435Z,56.78
2014-08-07T08:51:21.421Z,57.21
2014-08-07T08:52:26.111Z,57.06
2014-08-07T08:53:30.801Z,57.61
2014-08-07T08:54:35.491Z,56.44
2014-08-07T08:55:40.180Z,56.13
2014-08-07T08:56:44.870Z,56.91
2014-08-07T08:57:49.543Z,58.22
2014-08-07T08:58:54.232Z,57.86
2014-08-07T08:59:59.218Z,57.15
2014-08-07T09:01:03.909Z,56.6
2014-08-07T09:02:08.583Z,56.81
2014-08-07T09:03:13.272Z,55.88
2014-08-07T09:04:17.962Z,56.97
2014-08-07T09:05:22.948Z,56.87
2014-08-07T09:06:27.639Z,56.49
2014-08-07T09:07:32.327Z,55.74
2014-08-07T09:08:37.314Z,56.75
2014-08-07T09:09:42.597Z,56.32
2014-08-07T09:10:47.286Z,55.29
2014-08-07T09:11:51.976Z,56.04
2014-08-07T09:12:56.665Z,54.96
2014-08-07T09:14:01.653Z,55.69
2014-08-07T09:15:06.341Z,55.28
2014-08-07T09:16:11.032Z,56.97
2014-08-07T09:17:15.721Z,56.6
2014-08-07T09:18:20.410Z,55.33
2014-08-07T09:19:25.100Z,55.13
2014-08-07T09:20:29.789Z,58.55
2014-08-07T09:21:34.479Z,56.39
2014-08-07T09:22:39.169Z,56.46
2014-08-07T09:23:43.858Z,55.05
2014-08-07T09:24:48.532Z,56.47
2014-08-07T09:25:53.518Z,54.78
2014-08-07T09:26:58.208Z,54.15
2014-08-07T09:28:03.194Z,55.28
2014-08-07T09:29:08.181Z,55.3
2014-08-07T09:30:13.167Z,54.19
2014-08-07T09:31:17.857Z,53.94
2014-08-07T09:32:22.843Z,54.2
2014-08-07T09:33:27.532Z,55.05
2014-08-07T09:34:32.206Z,54.29
2014-08-07T09:35:36.897Z,54.89
2014-08-07T09:36:41.586Z,53.19
2014-08-07T09:37:46.276Z,55.29
2014-08-07T09:38:50.965Z,58.65
2014-08-07T09:39:55.655Z,57.37
2014-08-07T09:41:00.626Z,58.09
2014-08-07T09:42:05.331Z,56.16
2014-08-07T09:43:10.022Z,57.49
2014-08-07T09:44:14.992Z,57.75
2014-08-07T09:45:19.681Z,57.85
2014-08-07T09:46:24.372Z,55.82
2014-08-07T09:47:29.357Z,55.65
2014-08-07T09:48:34.032Z,55.67
2014-08-07T09:49:39.019Z,54.59
2014-08-07T09:50:43.708Z,55.88
2014-08-07T09:51:48.694Z,56.17
2014-08-07T09:52:53.368Z,54.17
2014-08-07T09:53:58.355Z,54.19
2014-08-07T09:55:03.044Z,54.46
2014-08-07T09:56:07.734Z,56.02
2014-08-07T09:57:12.423Z,54.59
2014-08-07T09:58:17.113Z,53.77
2014-08-07T09:59:21.802Z,54.27
2014-08-07T10:00:26.493Z,52.93
2014-08-07T10:01:31.182Z,53.29
2014-08-07T10:02:36.169Z,52.54
2014-08-07T10:03:40.858Z,52.49
2014-08-07T10:04:45.844Z,52.51
2014-08-07T10:05:50.534Z,51.18
2014-08-07T10:06:55.223Z,53.79
2014-08-07T10:08:00.210Z,51.09
2014-08-07T10:09:04.899Z,52.92
2014-08-07T10:10:09.886Z,54.08
2014-08-07T10:11:14.575Z,53.33
2014-08-07T10:12:19.265Z,53.58
2014-08-07T10:13:24.251Z,53.29
2014-08-07T10:14:29.237Z,54.79
2014-08-07T10:15:34.224Z,52.91
2014-08-07T10:16:39.210Z,53.08
2014-08-07T10:17:44.197Z,52.44
2014-08-07T10:18:49.167Z,54.15
2014-08-07T10:19:53.857Z,55.57
2014-08-07T10:20:58.546Z,54.44
2014-08-07T10:22:03.237Z,55.03
2014-08-07T10:23:07.925Z,56.32
2014-08-07T10:24:12.599Z,56.98
2014-08-07T10:25:17.289Z,55.08
2014-08-07T10:26:21.979Z,55.32
2014-08-07T10:27:26.669Z,54.88
2014-08-07T10:28:31.358Z,53.83
2014-08-07T10:29:36.031Z,53.32
2014-08-07T10:30:40.736Z,53.85
2014-08-07T10:31:45.426Z,53.51
2014-08-07T10:32:50.413Z,52.74
2014-08-07T10:33:55.102Z,52.31
2014-08-07T10:35:00.089Z,52.33
2014-08-07T10:36:05.074Z,53.18
2014-08-07T10:37:09.765Z,52.28
2014-08-07T10:38:14.751Z,53.48
2014-08-07T10:39:19.738Z,52.62
2014-08-07T10:40:24.427Z,53.29
2014-08-07T10:41:29.413Z,51.63
2014-08-07T10:42:34.087Z,51.46
2014-08-07T10:43:38.778Z,50.84
2014-08-07T10:44:43.763Z,50.82
2014-08-07T10:45:48.454Z,51.21
2014-08-07T10:46:53.144Z,53.41
2014-08-07T10:47:57.834Z,52.69
2014-08-07T10:49:02.523Z,52.45
2014-08-07T10:50:07.510Z,51.98
2014-08-07T10:51:12.496Z,51.66
2014-08-07T10:52:17.185Z,51.49
2014-08-07T10:53:21.876Z,52.02
2014-08-07T10:54:26.565Z,51.25
2014-08-07T10:55:31.255Z,51.43
2014-08-07T10:56:35.928Z,50.99
2014-08-07T10:57:40.914Z,51.07
2014-08-07T10:58:45.916Z,52.28
2014-08-07T10:59:50.606Z,54.93
2014-08-07T11:00:55.296Z,54.56
2014-08-07T11:01:59.986Z,53.38
2014-08-07T11:03:04.972Z,52.11
2014-08-07T11:04:09.662Z,51.75
2014-08-07T11:05:14.351Z,54.35
2014-08-07T11:06:19.336Z,54.93
2014-08-07T11:07:24.324Z,55.12
2014-08-07T11:08:29.310Z,57.54
2014-08-07T11:09:34.014Z,57.97
2014-08-07T11:10:38.705Z,59.08
2014-08-07T11:11:43.691Z,60.63
2014-08-07T11:12:48.365Z,59.14
2014-08-07T11:13:53.351Z,60.45
2014-08-07T11:14:58.041Z,61.01
2014-08-07T11:16:02.730Z,62.01
2014-08-07T11:17:07.420Z,60.21
2014-08-07T11:18:12.094Z,59.88
2014-08-07T11:19:17.080Z,59.25
2014-08-07T11:20:21.771Z,59.14
2014-08-07T11:21:26.756Z,58.88
2014-08-07T11:22:31.461Z,60.4
2014-08-07T11:23:36.151Z,60.76
2014-08-07T11:24:40.154Z,60.12
2014-08-07T11:25:45.139Z,62.7
2014-08-07T11:26:49.814Z,60.73
2014-08-07T11:27:54.800Z,59.64
2014-08-07T11:28:59.490Z,59.04
2014-08-07T11:30:04.476Z,63.73
2014-08-07T11:31:09.150Z,62.58
2014-08-07T11:32:14.151Z,60.72
2014-08-07T11:33:19.122Z,60.72
2014-08-07T11:34:23.811Z,60.79
2014-08-07T11:35:28.799Z,58.15
2014-08-07T11:36:33.785Z,56.94
2014-08-07T11:37:38.475Z,56.25
2014-08-07T11:38:43.164Z,57.54
2014-08-07T11:39:48.150Z,56.33
2014-08-07T11:40:52.842Z,55.63
2014-08-07T11:41:57.531Z,53.32
2014-08-07T11:43:02.221Z,54.45
2014-08-07T11:44:07.207Z,53.84
2014-08-07T11:45:11.896Z,54.46
2014-08-07T11:46:16.602Z,54.28
2014-08-07T11:47:21.291Z,53.95
2014-08-07T11:48:25.997Z,52.94
2014-08-07T11:49:30.983Z,53.32
2014-08-07T11:50:35.657Z,54.26
2014-08-07T11:51:40.346Z,54.22
2014-08-07T11:52:45.333Z,53.23
2014-08-07T11:53:50.022Z,53.47
2014-08-07T11:54:55.009Z,53.69
2014-08-07T11:55:59.698Z,52.18
2014-08-07T11:57:04.389Z,53.03
2014-08-07T11:58:09.375Z,54.51
2014-08-07T11:59:14.064Z,56.98
2014-08-07T12:00:19.348Z,55.28
2014-08-07T12:01:24.037Z,53.58
2014-08-07T12:02:29.304Z,53.08
2014-08-07T12:03:33.993Z,52.78
2014-08-07T12:04:39.277Z,53.56
2014-08-07T12:05:43.967Z,50.67
2014-08-07T12:06:49.249Z,50.31
2014-08-07T12:07:53.940Z,50.29
2014-08-07T12:08:58.628Z,51.65
2014-08-07T12:10:03.319Z,49.33
2014-08-07T12:11:08.305Z,50.27
2014-08-07T12:12:12.980Z,50.2
2014-08-07T12:13:17.669Z,50.99
2014-08-07T12:14:22.655Z,50.54
2014-08-07T12:15:27.344Z,51.33
2014-08-07T12:16:32.035Z,51.57
2014-08-07T12:17:37.021Z,50.61
2014-08-07T12:18:41.710Z,50.9
2014-08-07T12:19:46.399Z,50.9
2014-08-07T12:20:51.089Z,54.15
2014-08-07T12:21:55.778Z,51.34
2014-08-07T12:23:00.780Z,51.48
2014-08-07T12:24:05.470Z,53.35
2014-08-07T12:25:10.159Z,54.17
2014-08-07T12:26:15.162Z,54.31
2014-08-07T12:27:20.148Z,54.97
2014-08-07T12:28:24.837Z,55.25
2014-08-07T12:29:29.527Z,56.99
2014-08-07T12:30:34.812Z,57.44
2014-08-07T12:31:39.486Z,57.66
2014-08-07T12:32:44.175Z,57.04
2014-08-07T12:33:49.162Z,57.15
2014-08-07T12:34:53.851Z,59.31
2014-08-07T12:35:58.542Z,59.56
2014-08-07T12:37:03.512Z,59.68
2014-08-07T12:38:08.499Z,60.05
2014-08-07T12:39:13.485Z,59.91
2014-08-07T12:40:18.175Z,60.42
2014-08-07T12:41:22.863Z,59.65
2014-08-07T12:42:27.537Z,61.95
2014-08-07T12:43:32.228Z,62.25
2014-08-07T12:44:36.916Z,63.66
2014-08-07T12:45:41.902Z,63.11
2014-08-07T12:46:46.576Z,63.82
2014-08-07T12:47:51.564Z,62.87
2014-08-07T12:48:56.550Z,68.03
2014-08-07T12:50:01.240Z,65.2
2014-08-07T12:51:06.226Z,65.55
2014-08-07T12:52:11.212Z,66.23
2014-08-07T12:53:15.886Z,66.32
2014-08-07T12:54:20.888Z,65.4
2014-08-07T12:55:26.171Z,66.73
2014-08-07T12:56:30.861Z,68.45
2014-08-07T12:57:35.536Z,68.16
2014-08-07T12:58:40.224Z,69.56
2014-08-07T12:59:45.212Z,69.63
2014-08-07T13:00:50.181Z,69.82
2014-08-07T13:01:54.871Z,69.98
2014-08-07T13:02:59.560Z,69.31
2014-08-07T13:04:04.250Z,69.67
2014-08-07T13:05:08.940Z,69.88
2014-08-07T13:06:13.629Z,69.33
2014-08-07T13:07:18.319Z,70.88
2014-08-07T13:08:23.289Z,71.16
2014-08-07T13:09:28.276Z,70.6
2014-08-07T13:10:33.263Z,68.84
2014-08-07T13:11:38.234Z,71.24
2014-08-07T13:12:42.923Z,72.16
2014-08-07T13:13:47.910Z,71.71
2014-08-07T13:14:52.896Z,72.08
2014-08-07T13:15:57.867Z,72.16
2014-08-07T13:17:03.150Z,71.36
2014-08-07T13:18:07.839Z,71.21
2014-08-07T13:19:12.826Z,71.62
2014-08-07T13:20:17.797Z,71.67
2014-08-07T13:21:22.783Z,72.09
2014-08-07T13:22:27.769Z,72.07
2014-08-07T13:23:32.756Z,70.29
2014-08-07T13:24:37.445Z,71.9
2014-08-07T13:25:41.434Z,71.96
2014-08-07T13:26:46.420Z,71.13
2014-08-07T13:27:51.109Z,71.89
2014-08-07T13:28:55.799Z,71.91
2014-08-07T13:30:00.770Z,71.59
2014-08-07T13:31:05.458Z,71.36
2014-08-07T13:32:10.132Z,70.94
2014-08-07T13:33:14.822Z,72.75
2014-08-07T13:34:19.495Z,71.24
2014-08-07T13:35:24.482Z,72.56
2014-08-07T13:36:29.468Z,71.69
2014-08-07T13:37:34.455Z,71.86
2014-08-07T13:38:39.130Z,69.38
2014-08-07T13:39:43.820Z,67.24
2014-08-07T13:40:48.509Z,67.99
2014-08-07T13:41:53.182Z,69.55
2014-08-07T13:42:58.170Z,70.61
2014-08-07T13:44:02.859Z,70.52
2014-08-07T13:45:07.860Z,71.16
2014-08-07T13:46:12.847Z,71.71
2014-08-07T13:47:17.537Z,71.61
2014-08-07T13:48:22.820Z,71.29
2014-08-07T13:49:27.523Z,67.78
2014-08-07T13:50:32.245Z,69.32
2014-08-07T13:51:37.260Z,69.71
2014-08-07T13:52:42.278Z,70.08
2014-08-07T13:53:46.992Z,67.93
2014-08-07T13:54:51.694Z,70.2
2014-08-07T13:55:56.691Z,70.66